createdAt,value
2022-10-21T00:01:45.574Z,31.83
2022-10-21T00:06:47.588Z,31.90
2022-10-21T00:11:49.284Z,32.17
2022-10-21T00:16:55.634Z,32.03
2022-10-21T00:22:00.200Z,31.58
2022-10-21T00:27:02.798Z,33.60
2022-10-21T00:32:05.183Z,33.17
2022-10-21T00:37:06.851Z,32.28
2022-10-21T00:42:17.825Z,32.88
2022-10-21T00:47:22.069Z,30.83
2022-10-21T00:52:24.325Z,32.05
2022-10-21T00:57:27.119Z,30.37
2022-10-21T01:02:31.310Z,31.48
2022-10-21T01:07:36.365Z,32.38
2022-10-21T01:13:16.773Z,30.85
2022-10-21T01:19:12.365Z,32.33
2022-10-21T01:24:24.544Z,32.97
2022-10-21T01:30:04.949Z,33.42
2022-10-21T01:35:17.746Z,31.95
2022-10-21T01:40:30.438Z,31.50
2022-10-21T01:45:44.439Z,32.25
2022-10-21T01:50:51.644Z,34.20
2022-10-21T01:55:58.308Z,34.17
2022-10-21T02:01:01.446Z,35.70
2022-10-21T02:06:08.850Z,33.20
2022-10-21T02:11:11.873Z,35.90
2022-10-21T02:16:22.077Z,34.03
2022-10-21T02:21:26.924Z,34.60
2022-10-21T02:26:30.760Z,33.83
2022-10-21T02:31:50.410Z,33.93
2022-10-21T02:36:56.676Z,34.50
2022-10-21T02:42:00.142Z,36.67
2022-10-21T02:47:04.441Z,36.25
2022-10-21T02:52:08.787Z,35.27
2022-10-21T02:57:12.759Z,36.37
2022-10-21T03:02:14.428Z,35.50
2022-10-21T03:07:18.623Z,34.85
2022-10-21T03:12:23.271Z,33.47
2022-10-21T03:17:25.496Z,33.17
2022-10-21T03:22:30.296Z,33.53
2022-10-21T03:27:36.083Z,33.07
2022-10-21T03:32:38.174Z,33.17
2022-10-21T03:37:40.015Z,33.95
2022-10-21T03:42:41.893Z,34.50
2022-10-21T03:47:43.664Z,33.25
2022-10-21T03:52:45.543Z,35.08
2022-10-21T03:57:50.510Z,32.95
2022-10-21T04:02:54.443Z,33.33
2022-10-21T04:07:56.117Z,33.55
2022-10-21T04:13:00.060Z,33.77
2022-10-21T04:18:03.826Z,36.25
2022-10-21T04:23:05.494Z,34.58
2022-10-21T04:28:09.402Z,34.38
2022-10-21T04:33:13.109Z,35.63
2022-10-21T04:38:17.791Z,35.55
2022-10-21T04:43:21.677Z,34.83
2022-10-21T04:48:29.156Z,35.38
2022-10-21T04:53:33.570Z,36.45
2022-10-21T04:58:37.599Z,36.55
2022-10-21T05:03:40.313Z,34.13
2022-10-21T05:08:44.412Z,37.10
2022-10-21T05:13:46.175Z,38.85
2022-10-21T05:18:52.797Z,39.83
2022-10-21T05:23:58.133Z,38.15
2022-10-21T05:29:02.221Z,40.78
2022-10-21T05:34:04.594Z,39.90
2022-10-21T05:39:11.344Z,43.45
2022-10-21T05:44:13.004Z,43.22
2022-10-21T05:49:14.707Z,43.83
2022-10-21T05:54:20.998Z,42.72
2022-10-21T05:59:22.746Z,45.50
2022-10-21T06:04:26.956Z,45.17
2022-10-21T06:09:29.712Z,44.50
2022-10-21T06:14:31.387Z,45.80
2022-10-21T06:19:37.850Z,48.13
2022-10-21T06:24:41.861Z,48.95
2022-10-21T06:29:44.439Z,49.72
2022-10-21T06:34:51.863Z,48.78
2022-10-21T06:39:57.837Z,47.50
2022-10-21T06:45:00.422Z,47.25
2022-10-21T06:50:03.617Z,46.40
2022-10-21T06:55:08.580Z,48.90
2022-10-21T07:00:11.475Z,48.38
2022-10-21T07:05:18.968Z,49.63
2022-10-21T07:10:20.637Z,46.20
2022-10-21T07:15:26.804Z,43.40
2022-10-21T07:20:28.472Z,40.70
2022-10-21T07:25:32.409Z,39.38
2022-10-21T07:30:44.709Z,39.17
2022-10-21T07:35:46.454Z,38.35
2022-10-21T07:40:50.404Z,40.75
2022-10-21T07:45:52.369Z,37.55
2022-10-21T07:51:06.221Z,37.00
2022-10-21T07:56:12.157Z,37.65
2022-10-21T08:01:18.625Z,37.60
2022-10-21T08:06:22.290Z,36.70
2022-10-21T08:11:28.750Z,36.28
2022-10-21T08:16:30.870Z,38.20
2022-10-21T08:21:37.571Z,36.70
2022-10-21T08:26:39.238Z,34.60
2022-10-21T08:31:48.496Z,33.53
2022-10-21T08:36:50.186Z,32.33
2022-10-21T08:41:57.734Z,30.77
2022-10-21T08:47:05.735Z,30.17
2022-10-21T08:52:14.331Z,26.83
2022-10-21T08:57:16.439Z,28.67
2022-10-21T09:02:29.394Z,27.65
2022-10-21T09:07:48.811Z,25.95
2022-10-21T09:13:10.482Z,27.15
2022-10-21T09:18:30.949Z,27.30
2022-10-21T09:23:42.752Z,27.67
2022-10-21T09:28:47.182Z,27.33
2022-10-21T09:33:56.599Z,25.95
2022-10-21T09:39:30.807Z,25.80
2022-10-21T09:44:32.506Z,24.70
2022-10-21T09:50:05.394Z,23.35
2022-10-21T09:55:01.892Z,24.05
2022-10-21T10:00:08.199Z,23.00
2022-10-21T10:05:37.429Z,22.35
2022-10-21T10:10:43.975Z,22.20
2022-10-21T10:15:51.778Z,20.92
2022-10-21T10:21:08.982Z,20.90
2022-10-21T10:26:21.738Z,20.33
2022-10-21T10:31:30.251Z,19.02
2022-10-21T10:36:46.003Z,18.40
2022-10-21T10:41:53.207Z,18.77
2022-10-21T10:46:56.925Z,17.02
2022-10-21T10:52:24.572Z,16.55
2022-10-21T10:57:40.315Z,17.30
2022-10-21T11:03:05.440Z,17.02
2022-10-21T11:08:14.432Z,16.60
2022-10-21T11:13:18.952Z,15.90
2022-10-21T11:18:33.991Z,14.38
2022-10-21T11:23:48.944Z,14.18
2022-10-21T11:29:06.217Z,12.88
2022-10-21T11:34:22.003Z,11.82
2022-10-21T11:39:34.800Z,10.38
2022-10-21T11:45:06.658Z,11.20
2022-10-21T11:50:30.700Z,11.60
2022-10-21T11:55:41.220Z,11.77
2022-10-21T12:00:58.709Z,10.65
2022-10-21T12:06:13.053Z,10.10
2022-10-21T12:11:24.741Z,10.52
2022-10-21T12:16:29.239Z,9.65
2022-10-21T12:21:36.453Z,9.75
2022-10-21T12:27:19.838Z,9.48
2022-10-21T12:32:39.643Z,10.23
2022-10-21T12:38:04.669Z,9.52
2022-10-21T12:43:17.800Z,9.77
2022-10-21T12:48:32.730Z,9.77
2022-10-21T12:53:42.859Z,9.77
2022-10-21T12:58:45.671Z,10.00
2022-10-21T13:03:55.378Z,9.38
2022-10-21T13:09:02.206Z,8.98
2022-10-21T13:14:59.562Z,8.30
2022-10-21T13:20:19.740Z,7.45
2022-10-21T13:25:27.873Z,7.68
2022-10-21T13:30:35.120Z,7.13
2022-10-21T13:35:50.374Z,7.95
2022-10-21T13:41:03.199Z,7.40
2022-10-21T13:46:18.853Z,8.18
2022-10-21T13:51:27.266Z,7.88
2022-10-21T13:56:34.210Z,7.55
2022-10-21T14:01:56.423Z,7.00
2022-10-21T14:07:06.308Z,6.85
2022-10-21T14:12:29.719Z,6.93
2022-10-21T14:17:35.655Z,6.65
2022-10-21T14:22:40.584Z,6.97
2022-10-21T14:27:46.839Z,6.93
2022-10-21T14:32:54.116Z,8.00
2022-10-21T14:38:03.697Z,6.38
2022-10-21T14:43:19.038Z,8.10
2022-10-21T14:48:38.004Z,8.05
2022-10-21T14:54:05.253Z,8.05
2022-10-21T14:59:18.998Z,7.88
2022-10-21T15:04:51.587Z,9.75
2022-10-21T15:09:57.649Z,11.05
2022-10-21T15:15:03.321Z,9.05
2022-10-21T15:20:15.781Z,7.80
2022-10-21T15:25:20.075Z,7.85
2022-10-21T15:30:22.486Z,8.50
2022-10-21T15:35:26.493Z,9.15
2022-10-21T15:40:32.499Z,9.18
2022-10-21T15:45:34.202Z,10.15
2022-10-21T15:50:41.750Z,9.93
2022-10-21T15:55:44.320Z,10.55
2022-10-21T16:00:50.965Z,10.75
2022-10-21T16:05:55.273Z,10.80
2022-10-21T16:10:59.914Z,10.40
2022-10-21T16:16:05.116Z,12.68
2022-10-21T16:21:11.622Z,12.07
2022-10-21T16:26:17.179Z,11.52
2022-10-21T16:31:21.670Z,10.05
2022-10-21T16:36:26.094Z,10.13
2022-10-21T16:41:36.961Z,9.73
2022-10-21T16:46:51.792Z,13.18
2022-10-21T16:51:53.920Z,21.10
2022-10-21T16:56:56.422Z,23.27
2022-10-21T17:01:59.332Z,26.92
2022-10-21T17:07:01.951Z,17.00
2022-10-21T17:12:04.694Z,17.92
2022-10-21T17:17:11.795Z,18.30
2022-10-21T17:22:16.785Z,14.90
2022-10-21T17:27:19.700Z,15.50
2022-10-21T17:32:24.917Z,15.05
2022-10-21T17:37:28.748Z,18.08
2022-10-21T17:42:33.562Z,16.55
2022-10-21T17:47:36.924Z,19.17
2022-10-21T17:52:39.357Z,16.73
2022-10-21T17:57:46.445Z,15.93
2022-10-21T18:02:50.489Z,17.00
2022-10-21T18:07:52.198Z,16.25
2022-10-21T18:12:53.926Z,15.63
2022-10-21T18:17:55.613Z,15.60
2022-10-21T18:23:00.279Z,13.88
2022-10-21T18:28:01.931Z,14.52
2022-10-21T18:33:03.999Z,13.95
2022-10-21T18:38:05.717Z,13.20
2022-10-21T18:43:09.806Z,15.30
2022-10-21T18:48:11.504Z,12.85
2022-10-21T18:53:15.447Z,14.15
2022-10-21T18:58:19.452Z,14.45
2022-10-21T19:03:23.806Z,14.50
2022-10-21T19:08:25.532Z,14.13
2022-10-21T19:13:29.978Z,14.85
2022-10-21T19:18:31.928Z,12.88
2022-10-21T19:23:33.870Z,12.68
2022-10-21T19:28:39.023Z,13.38
2022-10-21T19:33:41.372Z,13.90
2022-10-21T19:38:45.605Z,12.68
2022-10-21T19:43:52.229Z,12.55
2022-10-21T19:48:54.228Z,13.18
2022-10-21T19:53:58.981Z,12.75
2022-10-21T19:59:03.442Z,12.93
2022-10-21T20:04:05.353Z,12.60
2022-10-21T20:09:15.434Z,13.20
2022-10-21T20:14:24.193Z,13.35
2022-10-21T20:19:30.030Z,14.10
2022-10-21T20:24:34.260Z,13.52
2022-10-21T20:29:38.513Z,15.48
2022-10-21T20:34:40.283Z,16.20
2022-10-21T20:39:42.076Z,16.63
2022-10-21T20:44:49.180Z,16.35
2022-10-21T20:49:56.117Z,16.75
2022-10-21T20:54:57.789Z,18.38
2022-10-21T21:00:01.770Z,20.88
2022-10-21T21:05:07.055Z,18.15
2022-10-21T21:10:12.613Z,18.00
2022-10-21T21:15:14.574Z,14.45
2022-10-21T21:20:18.672Z,17.05
2022-10-21T21:25:20.317Z,21.95
2022-10-21T21:30:21.956Z,23.52
2022-10-21T21:35:23.644Z,20.95
2022-10-21T21:40:25.292Z,17.60
2022-10-21T21:45:27.061Z,16.52
2022-10-21T21:50:28.720Z,18.98
2022-10-21T21:55:33.585Z,17.92
2022-10-21T22:00:36.007Z,20.25
2022-10-21T22:05:39.973Z,22.95
2022-10-21T22:10:43.939Z,21.00
2022-10-21T22:15:48.707Z,21.05
2022-10-21T22:20:50.554Z,21.70
2022-10-21T22:25:55.383Z,19.17
2022-10-21T22:31:12.597Z,23.08
2022-10-21T22:36:16.497Z,28.15
2022-10-21T22:41:19.354Z,21.08
2022-10-21T22:46:41.190Z,23.92
2022-10-21T22:51:45.169Z,28.33
2022-10-21T22:56:49.158Z,25.35
2022-10-21T23:01:52.888Z,26.67
2022-10-21T23:06:54.567Z,27.15
2022-10-21T23:12:00.955Z,33.17
2022-10-21T23:17:03.231Z,27.30
2022-10-21T23:22:07.695Z,31.88
2022-10-21T23:27:09.350Z,30.23
2022-10-21T23:32:17.673Z,25.90
2022-10-21T23:37:21.750Z,31.48
2022-10-21T23:42:23.406Z,24.70
2022-10-21T23:47:27.473Z,24.05
2022-10-21T23:52:35.441Z,29.23
2022-10-21T23:57:39.613Z,28.98
